Time;durP1;ratioP1;P1;durP2;ratioP2;P2;SDS_P1;SDS_P2;PMS_P1;PMS_P2;Temp;Humidity;BMP_temperature;BMP_pressure;BME280_temperature;BME280_humidity;BME280_pressure;Samples;Min_cycle;Max_cycle;Signal;HPM_P1;HPM_P2
2022/06/21 00:01:51;;;;;;;0.03;0.03;;;;;;;;;;5110919;27;20672;-66
2022/06/21 00:04:20;;;;;;;0.20;0.20;;;;;;;;;;5111967;27;20051;-66
2022/06/21 00:06:51;;;;;;;0.05;0.05;;;;;;;;;;5119940;27;20051;-66
2022/06/21 00:09:20;;;;;;;4.10;0.20;;;;;;;;;;5126883;27;20164;-66
2022/06/21 00:11:48;;;;;;;0.00;0.00;;;;;;;;;;5130801;27;20126;-67
2022/06/21 00:14:17;;;;;;;0.00;0.00;;;;;;;;;;5126614;27;20552;-67
2022/06/21 00:16:45;;;;;;;0.00;0.00;;;;;;;;;;5114565;27;20582;-66
2022/06/21 00:19:17;;;;;;;0.25;0.13;;;;;;;;;;5111131;27;20543;-66
2022/06/21 00:21:46;;;;;;;0.00;0.00;;;;;;;;;;5112539;28;20147;-66
2022/06/21 00:24:17;;;;;;;0.00;0.00;;;;;;;;;;5110340;27;20046;-67
2022/06/21 00:26:46;;;;;;;0.00;0.00;;;;;;;;;;5116389;27;20574;-67
2022/06/21 00:29:15;;;;;;;0.00;0.00;;;;;;;;;;5129021;28;20051;-67
2022/06/21 00:31:44;;;;;;;0.00;0.00;;;;;;;;;;5120851;28;20054;-68
2022/06/21 00:34:14;;;;;;;0.45;0.45;;;;;;;;;;5124330;27;20148;-68
2022/06/21 00:36:43;;;;;;;0.10;0.10;;;;;;;;;;5111622;27;20043;-68
2022/06/21 00:39:13;;;;;;;0.85;0.43;;;;;;;;;;5128474;27;20435;-68
2022/06/21 00:41:44;;;;;;;0.00;0.00;;;;;;;;;;5113764;28;20132;-68
2022/06/21 00:44:15;;;;;;;0.00;0.00;;;;;;;;;;5110894;28;20047;-68
2022/06/21 00:46:44;;;;;;;0.17;0.10;;;;;;;;;;5113187;27;20101;-68
2022/06/21 00:49:25;;;;;;;0.00;0.00;;;;;;;;;;5125508;27;20086;-68
2022/06/21 00:51:57;;;;;;;0.00;0.00;;;;;;;;;;5116237;27;20048;-68
2022/06/21 00:54:28;;;;;;;0.00;0.00;;;;;;;;;;5121151;27;20130;-67
2022/06/21 00:57:01;;;;;;;0.00;0.00;;;;;;;;;;5121495;27;20122;-68
2022/06/21 00:59:31;;;;;;;0.00;0.00;;;;;;;;;;5132184;27;20100;-68
2022/06/21 01:02:01;;;;;;;0.00;0.00;;;;;;;;;;5128596;27;20451;-68
2022/06/21 01:04:33;;;;;;;0.00;0.00;;;;;;;;;;5121479;27;20055;-67
2022/06/21 01:07:03;;;;;;;0.00;0.00;;;;;;;;;;5122027;27;20067;-67
2022/06/21 01:09:33;;;;;;;0.32;0.32;;;;;;;;;;5122699;27;20140;-68
2022/06/21 01:12:07;;;;;;;0.00;0.00;;;;;;;;;;5101045;22;20052;-86
2022/06/21 01:14:36;;;;;;;0.00;0.00;;;;;;;;;;5012203;28;20129;-84
2022/06/21 01:17:05;;;;;;;0.00;0.00;;;;;;;;;;5013755;28;20308;-82
2022/06/21 01:19:39;;;;;;;0.00;0.00;;;;;;;;;;5014242;28;20052;-82
2022/06/21 01:22:12;;;;;;;0.00;0.00;;;;;;;;;;5008397;28;20456;-86
2022/06/21 01:24:44;;;;;;;0.00;0.00;;;;;;;;;;4998200;28;20050;-82
2022/06/21 01:27:14;;;;;;;0.00;0.00;;;;;;;;;;5012449;28;20085;-82
2022/06/21 01:29:43;;;;;;;0.28;0.28;;;;;;;;;;5010562;28;20090;-82
2022/06/21 01:32:12;;;;;;;0.00;0.00;;;;;;;;;;5006962;28;20038;-83
2022/06/21 01:34:40;;;;;;;0.00;0.00;;;;;;;;;;5014398;28;20092;-82
2022/06/21 01:37:10;;;;;;;0.00;0.00;;;;;;;;;;5012717;28;20093;-82
2022/06/21 01:39:43;;;;;;;0.00;0.00;;;;;;;;;;4995725;28;20051;-83
2022/06/21 01:42:13;;;;;;;0.00;0.00;;;;;;;;;;5013475;28;20042;-82
2022/06/21 01:44:44;;;;;;;0.00;0.00;;;;;;;;;;5013472;28;20083;-82
2022/06/21 01:47:15;;;;;;;0.00;0.00;;;;;;;;;;5011561;28;20076;-83
2022/06/21 01:49:45;;;;;;;0.00;0.00;;;;;;;;;;5014386;28;20092;-82
2022/06/21 01:52:16;;;;;;;0.00;0.00;;;;;;;;;;5013072;28;20078;-82
2022/06/21 01:54:45;;;;;;;0.30;0.15;;;;;;;;;;5009164;28;20085;-82
2022/06/21 01:57:15;;;;;;;0.00;0.00;;;;;;;;;;5006467;28;20069;-82
2022/06/21 01:59:46;;;;;;;0.00;0.00;;;;;;;;;;5007705;28;20088;-82
2022/06/21 02:02:16;;;;;;;0.00;0.00;;;;;;;;;;5010891;28;20089;-82
2022/06/21 02:04:47;;;;;;;0.00;0.00;;;;;;;;;;5011837;28;20078;-82
2022/06/21 02:07:19;;;;;;;0.00;0.00;;;;;;;;;;5011531;28;20056;-84
2022/06/21 02:09:48;;;;;;;0.00;0.00;;;;;;;;;;5008983;28;20140;-82
2022/06/21 02:12:17;;;;;;;0.10;0.10;;;;;;;;;;5029526;28;20459;-82
2022/06/21 02:14:50;;;;;;;0.10;0.10;;;;;;;;;;5026105;28;20104;-82
2022/06/21 02:17:21;;;;;;;0.00;0.00;;;;;;;;;;5032419;28;20136;-84
2022/06/21 02:19:51;;;;;;;0.00;0.00;;;;;;;;;;5033125;28;20120;-82
2022/06/21 02:22:21;;;;;;;0.00;0.00;;;;;;;;;;5032531;28;20120;-82
2022/06/21 02:24:51;;;;;;;0.00;0.00;;;;;;;;;;5029418;28;20037;-82
2022/06/21 02:27:22;;;;;;;0.00;0.00;;;;;;;;;;5032053;28;20041;-85
2022/06/21 02:29:53;;;;;;;0.00;0.00;;;;;;;;;;5031905;28;20737;-83
2022/06/21 02:32:24;;;;;;;0.00;0.00;;;;;;;;;;5025712;28;20111;-88
2022/06/21 02:34:54;;;;;;;0.00;0.00;;;;;;;;;;5032201;28;20049;-82
2022/06/21 02:37:23;;;;;;;0.00;0.00;;;;;;;;;;5032663;28;20065;-85
2022/06/21 02:39:52;;;;;;;0.00;0.00;;;;;;;;;;5025731;28;20059;-87
2022/06/21 02:42:22;;;;;;;0.03;0.03;;;;;;;;;;5013858;28;20108;-82
2022/06/21 02:44:55;;;;;;;0.00;0.00;;;;;;;;;;5030578;28;20045;-82
2022/06/21 02:47:26;;;;;;;0.00;0.00;;;;;;;;;;5031634;28;20045;-82
2022/06/21 02:49:57;;;;;;;0.00;0.00;;;;;;;;;;5031561;28;20302;-82
2022/06/21 02:52:27;;;;;;;0.00;0.00;;;;;;;;;;5030897;28;20048;-88
2022/06/21 02:54:59;;;;;;;0.00;0.00;;;;;;;;;;5029011;28;20052;-82
2022/06/21 02:57:30;;;;;;;0.00;0.00;;;;;;;;;;5032516;28;20038;-82
2022/06/21 03:00:00;;;;;;;0.00;0.00;;;;;;;;;;5024334;28;20413;-90
2022/06/21 03:02:30;;;;;;;0.00;0.00;;;;;;;;;;5023669;28;20078;-83
2022/06/21 03:05:00;;;;;;;0.05;0.05;;;;;;;;;;5020547;28;20064;-83
2022/06/21 03:07:30;;;;;;;0.00;0.00;;;;;;;;;;5026496;28;20076;-83
2022/06/21 03:09:59;;;;;;;0.00;0.00;;;;;;;;;;5027712;28;20045;-82
2022/06/21 03:12:29;;;;;;;0.00;0.00;;;;;;;;;;5027964;28;20188;-83
2022/06/21 03:14:58;;;;;;;0.00;0.00;;;;;;;;;;5032436;28;20525;-82
2022/06/21 03:17:31;;;;;;;0.08;0.08;;;;;;;;;;5030128;28;20081;-85
2022/06/21 03:19:59;;;;;;;0.00;0.00;;;;;;;;;;5029581;28;20073;-82
2022/06/21 03:22:31;;;;;;;0.00;0.00;;;;;;;;;;5019625;28;20051;-83
2022/06/21 03:25:00;;;;;;;0.00;0.00;;;;;;;;;;5032229;28;20045;-84
2022/06/21 03:27:31;;;;;;;0.20;0.10;;;;;;;;;;5028910;28;20049;-83
2022/06/21 03:30:00;;;;;;;0.00;0.00;;;;;;;;;;5032270;28;20500;-90
2022/06/21 03:32:33;;;;;;;0.00;0.00;;;;;;;;;;5029267;28;20165;-84
2022/06/21 03:35:01;;;;;;;0.00;0.00;;;;;;;;;;5032213;28;20049;-87
2022/06/21 03:37:30;;;;;;;0.00;0.00;;;;;;;;;;5030223;28;20124;-83
2022/06/21 03:42:46;;;;;;;0.00;0.00;;;;;;;;;;5029204;28;20461;-82
2022/06/21 03:45:18;;;;;;;0.00;0.00;;;;;;;;;;5031715;28;20089;-83
2022/06/21 03:47:50;;;;;;;0.00;0.00;;;;;;;;;;5029167;28;20140;-83
2022/06/21 03:50:23;;;;;;;0.00;0.00;;;;;;;;;;5031176;28;20085;-82
2022/06/21 03:52:58;;;;;;;0.00;0.00;;;;;;;;;;5029734;28;20138;-82
2022/06/21 03:55:34;;;;;;;0.00;0.00;;;;;;;;;;5029742;28;20065;-83
2022/06/21 03:58:04;;;;;;;0.00;0.00;;;;;;;;;;5027818;28;20774;-86
2022/06/21 04:00:37;;;;;;;0.00;0.00;;;;;;;;;;5028679;28;20133;-82
2022/06/21 04:03:09;;;;;;;0.10;0.10;;;;;;;;;;5029156;28;20084;-82
2022/06/21 04:05:42;;;;;;;0.00;0.00;;;;;;;;;;5031057;28;20053;-85
2022/06/21 04:08:13;;;;;;;0.00;0.00;;;;;;;;;;5030410;28;20579;-82
2022/06/21 04:10:45;;;;;;;1.65;0.43;;;;;;;;;;5030577;28;20049;-82
2022/06/21 04:13:18;;;;;;;0.00;0.00;;;;;;;;;;5023503;28;20141;-87
2022/06/21 04:15:49;;;;;;;0.00;0.00;;;;;;;;;;5030063;28;20100;-83
2022/06/21 04:18:21;;;;;;;0.00;0.00;;;;;;;;;;5025575;28;20543;-82
2022/06/21 04:20:52;;;;;;;0.00;0.00;;;;;;;;;;5026846;28;20526;-83
2022/06/21 04:23:22;;;;;;;0.00;0.00;;;;;;;;;;5030596;28;20052;-85
2022/06/21 04:25:53;;;;;;;0.00;0.00;;;;;;;;;;5031348;28;20045;-85
2022/06/21 04:28:24;;;;;;;0.00;0.00;;;;;;;;;;5029792;28;20073;-92
2022/06/21 04:30:55;;;;;;;0.00;0.00;;;;;;;;;;5030510;28;20372;-83
2022/06/21 04:33:29;;;;;;;0.10;0.10;;;;;;;;;;5029113;28;20072;-86
2022/06/21 04:36:00;;;;;;;0.00;0.00;;;;;;;;;;5031500;28;20077;-82
2022/06/21 04:38:31;;;;;;;0.00;0.00;;;;;;;;;;5031229;28;20111;-87
2022/06/21 04:41:05;;;;;;;0.30;0.30;;;;;;;;;;5032515;28;20037;-82
2022/06/21 04:43:38;;;;;;;0.00;0.00;;;;;;;;;;5028333;28;20558;-82
2022/06/21 04:46:07;;;;;;;0.00;0.00;;;;;;;;;;5028069;28;20077;-83
2022/06/21 04:48:40;;;;;;;0.00;0.00;;;;;;;;;;5025822;28;20143;-83
2022/06/21 04:51:11;;;;;;;0.03;0.03;;;;;;;;;;5034552;28;20076;-89
2022/06/21 04:53:44;;;;;;;0.00;0.00;;;;;;;;;;5034283;28;20061;-82
2022/06/21 04:56:18;;;;;;;0.00;0.00;;;;;;;;;;5036169;28;20152;-81
2022/06/21 04:58:49;;;;;;;0.00;0.00;;;;;;;;;;5035930;28;20072;-84
2022/06/21 05:01:37;;;;;;;0.00;0.00;;;;;;;;;;5027196;28;20105;-83
2022/06/21 05:04:09;;;;;;;0.00;0.00;;;;;;;;;;5031721;28;20050;-82
2022/06/21 05:06:39;;;;;;;0.00;0.00;;;;;;;;;;5030493;28;20085;-84
2022/06/21 05:09:07;;;;;;;0.00;0.00;;;;;;;;;;5032279;28;20125;-87
2022/06/21 05:11:36;;;;;;;0.00;0.00;;;;;;;;;;5032666;28;20093;-81
2022/06/21 05:14:04;;;;;;;1.65;0.55;;;;;;;;;;5028799;28;20101;-81
2022/06/21 05:16:34;;;;;;;0.00;0.00;;;;;;;;;;5021969;28;20148;-85
2022/06/21 05:19:15;;;;;;;0.00;0.00;;;;;;;;;;5029388;28;20041;-83
2022/06/21 05:21:45;;;;;;;0.00;0.00;;;;;;;;;;5029161;28;20038;-82
2022/06/21 05:24:14;;;;;;;0.00;0.00;;;;;;;;;;5026148;28;20149;-83
2022/06/21 05:26:44;;;;;;;0.00;0.00;;;;;;;;;;5020976;28;20129;-82
2022/06/21 05:29:14;;;;;;;0.00;0.00;;;;;;;;;;5027188;28;20081;-81
2022/06/21 05:31:45;;;;;;;0.00;0.00;;;;;;;;;;5013110;28;20136;-82
2022/06/21 05:34:17;;;;;;;0.00;0.00;;;;;;;;;;5021601;28;20455;-82
2022/06/21 05:36:53;;;;;;;0.10;0.10;;;;;;;;;;5030862;28;20554;-84
2022/06/21 05:39:23;;;;;;;0.00;0.00;;;;;;;;;;5024656;28;20338;-82
2022/06/21 05:41:53;;;;;;;0.00;0.00;;;;;;;;;;5023998;28;20421;-83
2022/06/21 05:44:22;;;;;;;0.03;0.03;;;;;;;;;;5028310;28;20516;-82
2022/06/21 05:46:55;;;;;;;0.00;0.00;;;;;;;;;;5032745;28;20464;-82
2022/06/21 05:49:27;;;;;;;0.00;0.00;;;;;;;;;;5029648;28;20552;-82
2022/06/21 05:51:57;;;;;;;0.00;0.00;;;;;;;;;;5022877;28;20337;-82
2022/06/21 05:54:27;;;;;;;0.10;0.10;;;;;;;;;;5033699;28;20080;-82
2022/06/21 05:56:56;;;;;;;0.00;0.00;;;;;;;;;;5019215;28;20074;-82
2022/06/21 05:59:25;;;;;;;0.00;0.00;;;;;;;;;;5029481;28;20572;-82
2022/06/21 06:01:56;;;;;;;0.00;0.00;;;;;;;;;;5032299;28;20042;-82
2022/06/21 06:04:28;;;;;;;0.30;0.20;;;;;;;;;;5032790;28;20052;-83
2022/06/21 06:06:57;;;;;;;0.10;0.10;;;;;;;;;;5024073;28;20049;-82
2022/06/21 06:09:27;;;;;;;0.00;0.00;;;;;;;;;;5028374;28;20133;-82
2022/06/21 06:12:01;;;;;;;0.00;0.00;;;;;;;;;;5022920;28;20051;-82
2022/06/21 06:14:33;;;;;;;0.00;0.00;;;;;;;;;;5020956;28;20615;-82
2022/06/21 06:17:03;;;;;;;0.38;0.38;;;;;;;;;;5030621;28;20558;-83
2022/06/21 06:19:35;;;;;;;0.00;0.00;;;;;;;;;;5029212;28;20045;-80
2022/06/21 06:22:12;;;;;;;0.10;0.10;;;;;;;;;;5028179;28;20480;-84
2022/06/21 06:24:46;;;;;;;0.00;0.00;;;;;;;;;;5028351;28;20120;-84
2022/06/21 06:27:23;;;;;;;0.10;0.10;;;;;;;;;;5028925;28;20120;-81
2022/06/21 06:29:52;;;;;;;0.25;0.25;;;;;;;;;;5025161;28;20096;-83
2022/06/21 06:32:22;;;;;;;0.00;0.00;;;;;;;;;;5029475;28;20582;-81
2022/06/21 06:34:54;;;;;;;0.63;0.55;;;;;;;;;;5026720;28;20548;-83
2022/06/21 06:37:25;;;;;;;0.05;0.05;;;;;;;;;;5023244;28;20479;-81
2022/06/21 06:39:54;;;;;;;0.00;0.00;;;;;;;;;;5029047;28;20045;-82
2022/06/21 06:42:23;;;;;;;0.00;0.00;;;;;;;;;;5018664;28;20480;-81
2022/06/21 06:44:55;;;;;;;0.08;0.08;;;;;;;;;;5030590;28;20046;-81
2022/06/21 06:47:28;;;;;;;0.00;0.00;;;;;;;;;;5014560;28;20587;-82
2022/06/21 06:50:01;;;;;;;0.25;0.25;;;;;;;;;;5013336;28;20100;-80
2022/06/21 06:52:31;;;;;;;0.00;0.00;;;;;;;;;;5030296;28;20057;-81
2022/06/21 06:55:03;;;;;;;0.13;0.13;;;;;;;;;;5028044;28;20062;-81
2022/06/21 06:57:33;;;;;;;0.00;0.00;;;;;;;;;;5025376;28;20386;-81
2022/06/21 07:00:02;;;;;;;0.00;0.00;;;;;;;;;;5026838;28;20535;-82
2022/06/21 07:02:33;;;;;;;0.00;0.00;;;;;;;;;;5029947;28;20125;-84
2022/06/21 07:05:08;;;;;;;0.00;0.00;;;;;;;;;;5024187;28;20053;-84
2022/06/21 07:07:41;;;;;;;0.00;0.00;;;;;;;;;;5028547;28;20496;-81
2022/06/21 07:10:12;;;;;;;0.00;0.00;;;;;;;;;;5025374;28;20038;-81
2022/06/21 07:12:41;;;;;;;0.00;0.00;;;;;;;;;;5028904;28;20057;-83
2022/06/21 07:15:10;;;;;;;0.00;0.00;;;;;;;;;;5028431;28;20131;-81
2022/06/21 07:17:41;;;;;;;0.00;0.00;;;;;;;;;;5023609;28;20112;-83
2022/06/21 07:20:21;;;;;;;0.08;0.08;;;;;;;;;;5028819;28;20063;-80
2022/06/21 07:22:52;;;;;;;0.03;0.03;;;;;;;;;;5030421;28;20091;-81
2022/06/21 07:25:25;;;;;;;0.00;0.00;;;;;;;;;;5011013;28;20041;-81
2022/06/21 07:27:56;;;;;;;0.00;0.00;;;;;;;;;;5025927;28;20084;-91
2022/06/21 07:30:28;;;;;;;0.00;0.00;;;;;;;;;;5026342;28;20438;-81
2022/06/21 07:33:00;;;;;;;0.00;0.00;;;;;;;;;;5014792;28;20054;-82
2022/06/21 07:35:33;;;;;;;0.00;0.00;;;;;;;;;;5032356;28;20108;-81
2022/06/21 07:38:04;;;;;;;0.00;0.00;;;;;;;;;;5021452;28;20107;-81
2022/06/21 07:40:34;;;;;;;0.00;0.00;;;;;;;;;;5031510;28;20045;-85
2022/06/21 07:43:04;;;;;;;0.00;0.00;;;;;;;;;;5028461;28;20443;-85
2022/06/21 07:45:37;;;;;;;0.00;0.00;;;;;;;;;;5028908;28;20055;-85
2022/06/21 07:48:07;;;;;;;0.00;0.00;;;;;;;;;;5023078;28;20107;-81
2022/06/21 07:50:39;;;;;;;0.00;0.00;;;;;;;;;;5029026;28;20110;-87
2022/06/21 07:53:11;;;;;;;0.00;0.00;;;;;;;;;;5030378;28;20096;-81
2022/06/21 07:55:41;;;;;;;0.00;0.00;;;;;;;;;;5029842;28;20052;-82
2022/06/21 07:58:12;;;;;;;0.00;0.00;;;;;;;;;;5023504;28;20074;-81
2022/06/21 08:06:43;;;;;;;0.00;0.00;;;;;;;;;;4957688;28;20047;-81
2022/06/21 08:09:20;;;;;;;0.15;0.15;;;;;;;;;;5007498;28;20050;-82
2022/06/21 08:11:50;;;;;;;0.00;0.00;;;;;;;;;;5029432;28;20049;-82
2022/06/21 08:14:19;;;;;;;0.15;0.15;;;;;;;;;;5032210;28;20053;-84
2022/06/21 08:16:53;;;;;;;0.00;0.00;;;;;;;;;;5019069;28;20061;-84
2022/06/21 08:19:26;;;;;;;0.00;0.00;;;;;;;;;;5016113;28;20054;-82
2022/06/21 08:22:00;;;;;;;0.10;0.10;;;;;;;;;;5019012;28;20045;-81
2022/06/21 08:24:33;;;;;;;0.00;0.00;;;;;;;;;;5023571;28;20473;-82
2022/06/21 08:27:06;;;;;;;0.00;0.00;;;;;;;;;;5029379;28;20111;-81
2022/06/21 08:29:38;;;;;;;0.00;0.00;;;;;;;;;;5025305;28;20103;-82
2022/06/21 08:32:11;;;;;;;0.00;0.00;;;;;;;;;;5025537;28;20123;-84
2022/06/21 08:34:42;;;;;;;0.10;0.10;;;;;;;;;;5019201;28;20054;-87
2022/06/21 08:37:15;;;;;;;0.00;0.00;;;;;;;;;;5020318;28;20045;-82
2022/06/21 08:39:47;;;;;;;0.00;0.00;;;;;;;;;;5025173;28;20054;-81
2022/06/21 08:42:39;;;;;;;0.20;0.20;;;;;;;;;;5021270;28;20065;-82
2022/06/21 08:45:44;;;;;;;0.10;0.10;;;;;;;;;;4957263;28;20506;-81
2022/06/21 08:48:36;;;;;;;0.10;0.10;;;;;;;;;;5011229;28;20111;-81
2022/06/21 08:51:22;;;;;;;0.00;0.00;;;;;;;;;;5020629;28;20393;-82
2022/06/21 08:53:59;;;;;;;0.00;0.00;;;;;;;;;;5014716;28;20050;-82
2022/06/21 08:56:30;;;;;;;0.08;0.08;;;;;;;;;;5026883;28;20138;-83
2022/06/21 08:59:04;;;;;;;0.00;0.00;;;;;;;;;;5030273;28;20059;-82
2022/06/21 09:01:35;;;;;;;0.00;0.00;;;;;;;;;;5031602;28;20049;-87
2022/06/21 09:04:12;;;;;;;0.00;0.00;;;;;;;;;;5011436;28;20108;-87
2022/06/21 09:06:45;;;;;;;0.00;0.00;;;;;;;;;;5011862;28;20061;-86
2022/06/21 09:09:29;;;;;;;0.00;0.00;;;;;;;;;;5033222;28;20046;-82
2022/06/21 09:12:04;;;;;;;0.00;0.00;;;;;;;;;;5014696;28;20563;-85
2022/06/21 09:14:40;;;;;;;0.10;0.10;;;;;;;;;;5017635;28;21369;-83
2022/06/21 09:17:14;;;;;;;0.10;0.10;;;;;;;;;;5026116;28;20051;-86
2022/06/21 09:19:51;;;;;;;0.00;0.00;;;;;;;;;;5029095;28;20059;-82
2022/06/21 09:22:27;;;;;;;0.00;0.00;;;;;;;;;;5032267;28;20049;-82
2022/06/21 09:24:59;;;;;;;0.00;0.00;;;;;;;;;;5015011;28;20125;-82
2022/06/21 09:27:32;;;;;;;0.00;0.00;;;;;;;;;;5015518;28;20058;-85
2022/06/21 09:30:06;;;;;;;0.00;0.00;;;;;;;;;;5015246;28;20432;-82
2022/06/21 09:32:39;;;;;;;0.20;0.20;;;;;;;;;;5024536;28;20045;-82
2022/06/21 09:35:15;;;;;;;0.00;0.00;;;;;;;;;;5033181;28;20560;-87
2022/06/21 09:37:53;;;;;;;0.25;0.25;;;;;;;;;;5032510;28;20068;-84
2022/06/21 09:40:26;;;;;;;0.10;0.10;;;;;;;;;;5033337;28;20401;-81
2022/06/21 09:43:20;;;;;;;0.10;0.10;;;;;;;;;;5033220;28;20053;-82
2022/06/21 09:45:50;;;;;;;0.05;0.05;;;;;;;;;;5017577;28;20441;-85
2022/06/21 09:48:22;;;;;;;0.10;0.10;;;;;;;;;;5030786;28;20090;-83
2022/06/21 09:50:57;;;;;;;0.05;0.05;;;;;;;;;;5032058;28;20099;-81
2022/06/21 09:53:31;;;;;;;0.00;0.00;;;;;;;;;;5027440;28;20088;-81
2022/06/21 09:56:06;;;;;;;0.00;0.00;;;;;;;;;;5025545;28;20045;-82
2022/06/21 09:58:41;;;;;;;0.00;0.00;;;;;;;;;;5026885;28;20057;-84
2022/06/21 10:01:09;;;;;;;;;;;;;;;;;;5034213;28;20546;-82
2022/06/21 10:03:42;;;;;;;0.05;0.05;;;;;;;;;;5032900;28;19924;-82
2022/06/21 10:06:16;;;;;;;0.35;0.35;;;;;;;;;;5026592;28;20481;-82
2022/06/21 10:08:55;;;;;;;0.15;0.15;;;;;;;;;;5016571;28;20062;-80
2022/06/21 10:11:29;;;;;;;0.03;0.03;;;;;;;;;;5023468;28;20045;-84
2022/06/21 10:14:18;;;;;;;0.00;0.00;;;;;;;;;;5030253;28;20053;-86
2022/06/21 10:16:56;;;;;;;0.00;0.00;;;;;;;;;;5024649;28;20046;-84
2022/06/21 10:19:36;;;;;;;0.10;0.10;;;;;;;;;;5026688;28;20084;-84
2022/06/21 10:22:10;;;;;;;;;;;;;;;;;;5019489;28;20045;-84
2022/06/21 10:24:48;;;;;;;0.00;0.00;;;;;;;;;;5017239;28;20384;-87
2022/06/21 10:27:26;;;;;;;0.00;0.00;;;;;;;;;;5028375;28;20397;-86
2022/06/21 10:30:04;;;;;;;0.00;0.00;;;;;;;;;;5030335;28;20393;-85
2022/06/21 10:32:46;;;;;;;0.10;0.10;;;;;;;;;;5016451;28;20125;-85
2022/06/21 10:35:25;;;;;;;0.28;0.28;;;;;;;;;;5020991;28;20382;-84
2022/06/21 10:38:01;;;;;;;0.00;0.00;;;;;;;;;;5020041;28;20038;-84
2022/06/21 10:40:37;;;;;;;1.25;0.47;;;;;;;;;;5022427;28;20124;-85
2022/06/21 10:43:23;;;;;;;0.13;0.10;;;;;;;;;;5032682;28;20046;-84
2022/06/21 10:45:53;;;;;;;0.03;0.00;;;;;;;;;;5014202;28;20054;-86
2022/06/21 10:48:45;;;;;;;0.57;0.40;;;;;;;;;;5021957;28;20046;-84
2022/06/21 10:51:20;;;;;;;0.00;0.00;;;;;;;;;;5024280;28;20128;-84
2022/06/21 10:53:56;;;;;;;0.00;0.00;;;;;;;;;;5028997;28;20054;-86
2022/06/21 10:59:19;;;;;;;0.43;0.43;;;;;;;;;;4977491;28;20444;-85
2022/06/21 11:01:51;;;;;;;0.00;0.00;;;;;;;;;;5022332;28;20109;-87
2022/06/21 11:04:41;;;;;;;0.00;0.00;;;;;;;;;;5021226;28;20053;-86
2022/06/21 11:07:13;;;;;;;0.20;0.10;;;;;;;;;;5018951;28;20045;-85
2022/06/21 11:09:47;;;;;;;3.08;0.75;;;;;;;;;;5020682;28;20133;-87
2022/06/21 11:15:09;;;;;;;0.85;0.60;;;;;;;;;;5025718;28;20107;-86
2022/06/21 11:17:42;;;;;;;0.90;0.30;;;;;;;;;;5027700;28;20057;-84
2022/06/21 11:20:17;;;;;;;0.22;0.10;;;;;;;;;;5021612;28;20128;-88
2022/06/21 11:22:49;;;;;;;0.10;0.10;;;;;;;;;;5031901;28;20095;-86
2022/06/21 11:25:24;;;;;;;0.22;0.22;;;;;;;;;;5030149;28;20429;-86
2022/06/21 11:27:52;;;;;;;;;;;;;;;;;;5031333;28;20448;-86
2022/06/21 11:30:25;;;;;;;0.00;0.00;;;;;;;;;;5025037;28;19925;-86
2022/06/21 11:32:59;;;;;;;2.17;0.28;;;;;;;;;;5028677;28;20088;-89
2022/06/21 11:35:34;;;;;;;0.15;0.15;;;;;;;;;;5026039;28;20053;-86
2022/06/21 11:38:19;;;;;;;0.22;0.22;;;;;;;;;;5028160;28;20045;-87
2022/06/21 11:40:52;;;;;;;0.43;0.40;;;;;;;;;;5029068;28;20072;-86
2022/06/21 11:43:31;;;;;;;0.40;0.20;;;;;;;;;;5024659;28;20118;-87
2022/06/21 11:46:08;;;;;;;0.20;0.20;;;;;;;;;;5020804;28;20042;-87
2022/06/21 11:48:55;;;;;;;0.03;0.03;;;;;;;;;;5024930;28;20115;-86
2022/06/21 11:51:31;;;;;;;0.85;0.55;;;;;;;;;;5028228;28;20050;-86
2022/06/21 11:54:03;;;;;;;0.10;0.10;;;;;;;;;;5018658;28;20444;-86
2022/06/21 11:56:37;;;;;;;0.00;0.00;;;;;;;;;;5025354;28;20057;-88
2022/06/21 11:59:08;;;;;;;0.00;0.00;;;;;;;;;;5021675;28;20049;-87
2022/06/21 12:01:42;;;;;;;0.47;0.47;;;;;;;;;;5027606;28;20050;-85
2022/06/21 12:04:16;;;;;;;0.45;0.28;;;;;;;;;;5025522;28;20045;-86
2022/06/21 12:06:48;;;;;;;0.25;0.13;;;;;;;;;;5022059;28;20041;-87
2022/06/21 12:09:21;;;;;;;0.60;0.30;;;;;;;;;;5022447;28;20041;-86
2022/06/21 12:11:59;;;;;;;0.38;0.10;;;;;;;;;;5018355;28;20056;-86
2022/06/21 12:14:36;;;;;;;0.00;0.00;;;;;;;;;;5021684;28;20045;-86
2022/06/21 12:17:07;;;;;;;0.10;0.10;;;;;;;;;;5022258;28;20140;-88
2022/06/21 12:19:40;;;;;;;0.20;0.20;;;;;;;;;;5021298;28;20068;-87
2022/06/21 12:22:13;;;;;;;0.30;0.30;;;;;;;;;;5018851;28;20488;-86
2022/06/21 12:24:43;;;;;;;0.00;0.00;;;;;;;;;;5014631;28;20060;-86
2022/06/21 12:27:13;;;;;;;0.05;0.05;;;;;;;;;;5019861;28;20045;-85
2022/06/21 12:29:41;;;;;;;0.30;0.30;;;;;;;;;;5020768;28;20121;-85
2022/06/21 12:32:14;;;;;;;0.30;0.30;;;;;;;;;;5020805;28;20053;-89
2022/06/21 12:34:48;;;;;;;0.38;0.38;;;;;;;;;;5023772;28;20490;-85
2022/06/21 12:37:20;;;;;;;0.10;0.10;;;;;;;;;;5020700;28;20101;-85
2022/06/21 12:39:51;;;;;;;0.63;0.63;;;;;;;;;;5018163;28;20128;-88
2022/06/21 12:42:41;;;;;;;0.25;0.25;;;;;;;;;;5023983;28;20509;-86
2022/06/21 12:45:18;;;;;;;0.10;0.10;;;;;;;;;;5021784;28;20128;-86
2022/06/21 12:47:52;;;;;;;0.35;0.35;;;;;;;;;;5017660;28;20053;-86
2022/06/21 12:50:33;;;;;;;0.52;0.50;;;;;;;;;;5020835;28;20128;-86
2022/06/21 12:53:06;;;;;;;0.03;0.03;;;;;;;;;;5023712;28;20085;-85
2022/06/21 12:55:41;;;;;;;0.10;0.10;;;;;;;;;;5016276;28;20068;-86
2022/06/21 12:58:18;;;;;;;0.80;0.30;;;;;;;;;;5019996;28;20061;-86
2022/06/21 13:00:49;;;;;;;0.52;0.20;;;;;;;;;;5019640;28;20115;-85
2022/06/21 13:03:24;;;;;;;0.75;0.75;;;;;;;;;;5021020;28;20408;-86
2022/06/21 13:06:05;;;;;;;0.20;0.08;;;;;;;;;;5013966;28;20053;-86
2022/06/21 13:08:42;;;;;;;0.38;0.38;;;;;;;;;;5019030;28;20554;-85
2022/06/21 13:11:23;;;;;;;0.05;0.05;;;;;;;;;;5024376;28;20396;-86
2022/06/21 13:13:59;;;;;;;0.38;0.38;;;;;;;;;;5023705;28;20051;-85
2022/06/21 13:16:33;;;;;;;0.08;0.08;;;;;;;;;;5025994;28;20056;-85
2022/06/21 13:19:11;;;;;;;0.40;0.25;;;;;;;;;;5032316;28;20046;-85
2022/06/21 13:21:45;;;;;;;0.17;0.17;;;;;;;;;;5021779;28;20049;-85
2022/06/21 13:24:24;;;;;;;0.32;0.30;;;;;;;;;;5025973;28;20049;-86
2022/06/21 13:27:11;;;;;;;0.73;0.30;;;;;;;;;;5026060;28;20068;-85
2022/06/21 13:29:47;;;;;;;0.00;0.00;;;;;;;;;;5026146;28;20108;-87
2022/06/21 13:32:18;;;;;;;0.08;0.08;;;;;;;;;;5033130;28;20080;-86
2022/06/21 13:34:49;;;;;;;1.25;0.15;;;;;;;;;;5019612;28;20046;-85
2022/06/21 13:37:22;;;;;;;0.10;0.10;;;;;;;;;;5038191;28;20560;-83
2022/06/21 13:39:56;;;;;;;0.60;0.45;;;;;;;;;;5035592;28;20132;-84
2022/06/21 13:42:38;;;;;;;0.10;0.10;;;;;;;;;;5039886;28;20046;-85
2022/06/21 13:45:15;;;;;;;0.32;0.32;;;;;;;;;;5037718;28;20045;-84
2022/06/21 13:47:47;;;;;;;7.50;0.65;;;;;;;;;;5032484;28;20052;-84
2022/06/21 13:50:21;;;;;;;0.30;0.20;;;;;;;;;;5024538;28;20045;-84
2022/06/21 13:52:54;;;;;;;0.23;0.20;;;;;;;;;;5019096;28;20042;-84
2022/06/21 13:55:29;;;;;;;0.57;0.57;;;;;;;;;;5030450;28;20054;-84
2022/06/21 13:58:03;;;;;;;0.00;0.00;;;;;;;;;;5032217;28;20041;-84
2022/06/21 14:00:36;;;;;;;0.30;0.30;;;;;;;;;;5019874;28;20231;-85
2022/06/21 14:03:10;;;;;;;0.03;0.03;;;;;;;;;;5026067;28;20345;-86
2022/06/21 14:05:40;;;;;;;1.25;0.40;;;;;;;;;;5027921;28;20485;-85
2022/06/21 14:08:14;;;;;;;0.22;0.17;;;;;;;;;;5024843;28;20089;-84
2022/06/21 14:10:44;;;;;;;0.43;0.20;;;;;;;;;;5018814;28;20046;-84
2022/06/21 14:13:16;;;;;;;0.10;0.10;;;;;;;;;;5020850;28;20179;-84
2022/06/21 14:15:49;;;;;;;0.15;0.15;;;;;;;;;;5017025;28;20049;-85
2022/06/21 14:18:21;;;;;;;0.10;0.10;;;;;;;;;;5027407;28;20127;-85
2022/06/21 14:20:54;;;;;;;0.10;0.10;;;;;;;;;;5023163;28;20444;-84
2022/06/21 14:23:26;;;;;;;0.17;0.17;;;;;;;;;;5018061;28;20149;-84
2022/06/21 14:25:59;;;;;;;0.20;0.20;;;;;;;;;;5029003;28;20049;-84
2022/06/21 14:28:30;;;;;;;0.30;0.30;;;;;;;;;;5029747;28;20089;-84
2022/06/21 14:31:06;;;;;;;0.20;0.20;;;;;;;;;;5032093;28;20081;-84
2022/06/21 14:33:39;;;;;;;0.10;0.10;;;;;;;;;;5028018;28;20558;-85
2022/06/21 14:36:16;;;;;;;0.00;0.00;;;;;;;;;;5021416;28;20061;-84
2022/06/21 14:38:46;;;;;;;1.02;0.43;;;;;;;;;;5019754;28;20049;-85
2022/06/21 14:41:16;;;;;;;0.10;0.10;;;;;;;;;;5029158;28;20436;-84
2022/06/21 14:43:47;;;;;;;0.00;0.00;;;;;;;;;;5025526;28;20049;-84
2022/06/21 14:46:19;;;;;;;0.00;0.00;;;;;;;;;;5018837;28;20045;-84
2022/06/21 14:48:52;;;;;;;0.10;0.10;;;;;;;;;;5025083;28;20057;-84
2022/06/21 14:51:25;;;;;;;0.20;0.20;;;;;;;;;;5018151;28;20069;-85
2022/06/21 14:54:06;;;;;;;0.00;0.00;;;;;;;;;;5023498;28;20109;-84
2022/06/21 14:56:41;;;;;;;0.20;0.20;;;;;;;;;;5032091;28;20049;-85
2022/06/21 14:59:22;;;;;;;0.00;0.00;;;;;;;;;;5025928;28;20053;-85
2022/06/21 15:02:19;;;;;;;0.10;0.10;;;;;;;;;;5023778;28;20114;-86
2022/06/21 15:04:50;;;;;;;0.08;0.08;;;;;;;;;;5030294;28;20396;-84
2022/06/21 15:07:24;;;;;;;0.20;0.20;;;;;;;;;;5016233;28;20093;-83
2022/06/21 15:09:56;;;;;;;0.47;0.47;;;;;;;;;;5029639;28;20045;-83
2022/06/21 15:12:48;;;;;;;0.25;0.20;;;;;;;;;;5029372;28;20504;-84
2022/06/21 15:15:19;;;;;;;0.00;0.00;;;;;;;;;;5026708;28;20412;-84
2022/06/21 15:17:52;;;;;;;0.10;0.10;;;;;;;;;;5023329;28;20579;-84
2022/06/21 15:20:22;;;;;;;0.10;0.10;;;;;;;;;;5029617;28;20540;-84
2022/06/21 15:22:54;;;;;;;0.22;0.22;;;;;;;;;;5029939;28;20068;-84
2022/06/21 15:25:27;;;;;;;0.00;0.00;;;;;;;;;;5020097;28;20049;-84
2022/06/21 15:28:00;;;;;;;0.20;0.20;;;;;;;;;;5031531;28;20057;-84
2022/06/21 15:30:32;;;;;;;0.30;0.10;;;;;;;;;;5030185;28;20041;-84
2022/06/21 15:33:04;;;;;;;0.10;0.10;;;;;;;;;;5028298;28;20050;-84